sensor_id;sensor_type;location;lat;lon;timestamp;P1;durP1;ratioP1;P2;durP2;ratioP2
68923;SDS011;55961;52.156;20.942;2024-02-16T00:01:35;34.50;;;16.00;;
68923;SDS011;55961;52.156;20.942;2024-02-16T00:04:01;31.33;;;15.63;;
68923;SDS011;55961;52.156;20.942;2024-02-16T00:06:27;28.27;;;14.17;;
68923;SDS011;55961;52.156;20.942;2024-02-16T00:08:53;26.27;;;14.30;;
68923;SDS011;55961;52.156;20.942;2024-02-16T00:11:19;27.50;;;13.60;;
68923;SDS011;55961;52.156;20.942;2024-02-16T00:13:45;29.42;;;14.48;;
68923;SDS011;55961;52.156;20.942;2024-02-16T00:16:12;29.87;;;15.23;;
68923;SDS011;55961;52.156;20.942;2024-02-16T00:18:42;27.52;;;14.05;;
68923;SDS011;55961;52.156;20.942;2024-02-16T00:21:08;28.55;;;14.50;;
68923;SDS011;55961;52.156;20.942;2024-02-16T00:23:34;29.27;;;13.80;;
68923;SDS011;55961;52.156;20.942;2024-02-16T00:26:01;28.40;;;14.10;;
68923;SDS011;55961;52.156;20.942;2024-02-16T00:28:32;27.10;;;13.10;;
68923;SDS011;55961;52.156;20.942;2024-02-16T00:30:58;26.73;;;14.27;;
68923;SDS011;55961;52.156;20.942;2024-02-16T00:33:24;25.97;;;13.27;;
68923;SDS011;55961;52.156;20.942;2024-02-16T00:35:50;24.33;;;12.50;;
68923;SDS011;55961;52.156;20.942;2024-02-16T00:38:18;25.10;;;12.43;;
68923;SDS011;55961;52.156;20.942;2024-02-16T00:40:44;29.03;;;13.00;;
68923;SDS011;55961;52.156;20.942;2024-02-16T00:43:10;28.00;;;12.73;;
68923;SDS011;55961;52.156;20.942;2024-02-16T00:45:36;18.85;;;9.52;;
68923;SDS011;55961;52.156;20.942;2024-02-16T00:48:09;24.02;;;10.30;;
68923;SDS011;55961;52.156;20.942;2024-02-16T00:50:35;27.23;;;11.40;;
68923;SDS011;55961;52.156;20.942;2024-02-16T00:53:02;25.03;;;11.47;;
68923;SDS011;55961;52.156;20.942;2024-02-16T00:55:30;18.55;;;9.10;;
68923;SDS011;55961;52.156;20.942;2024-02-16T00:57:57;20.60;;;10.82;;
68923;SDS011;55961;52.156;20.942;2024-02-16T01:00:22;21.53;;;10.70;;
68923;SDS011;55961;52.156;20.942;2024-02-16T01:02:49;18.83;;;10.10;;
68923;SDS011;55961;52.156;20.942;2024-02-16T01:05:17;23.02;;;9.90;;
68923;SDS011;55961;52.156;20.942;2024-02-16T01:07:44;19.23;;;9.80;;
68923;SDS011;55961;52.156;20.942;2024-02-16T01:10:10;18.38;;;9.75;;
68923;SDS011;55961;52.156;20.942;2024-02-16T01:12:38;20.50;;;8.95;;
68923;SDS011;55961;52.156;20.942;2024-02-16T01:15:03;17.43;;;8.90;;
68923;SDS011;55961;52.156;20.942;2024-02-16T01:17:30;16.67;;;8.13;;
68923;SDS011;55961;52.156;20.942;2024-02-16T01:19:58;17.50;;;7.80;;
68923;SDS011;55961;52.156;20.942;2024-02-16T01:22:24;20.20;;;8.23;;
68923;SDS011;55961;52.156;20.942;2024-02-16T01:24:54;17.23;;;7.77;;
68923;SDS011;55961;52.156;20.942;2024-02-16T01:27:20;17.27;;;8.40;;
68923;SDS011;55961;52.156;20.942;2024-02-16T01:29:46;17.25;;;7.93;;
68923;SDS011;55961;52.156;20.942;2024-02-16T01:32:12;18.90;;;9.05;;
68923;SDS011;55961;52.156;20.942;2024-02-16T01:34:39;17.15;;;8.95;;
68923;SDS011;55961;52.156;20.942;2024-02-16T01:37:06;18.57;;;7.83;;
68923;SDS011;55961;52.156;20.942;2024-02-16T01:39:32;17.05;;;8.20;;
68923;SDS011;55961;52.156;20.942;2024-02-16T01:41:58;17.27;;;8.20;;
68923;SDS011;55961;52.156;20.942;2024-02-16T01:44:24;19.17;;;8.47;;
68923;SDS011;55961;52.156;20.942;2024-02-16T01:46:50;20.52;;;8.40;;
68923;SDS011;55961;52.156;20.942;2024-02-16T01:49:16;18.23;;;8.57;;
68923;SDS011;55961;52.156;20.942;2024-02-16T01:51:42;17.52;;;8.45;;
68923;SDS011;55961;52.156;20.942;2024-02-16T01:54:11;17.52;;;8.75;;
68923;SDS011;55961;52.156;20.942;2024-02-16T01:56:39;16.97;;;8.30;;
68923;SDS011;55961;52.156;20.942;2024-02-16T01:59:07;17.83;;;8.90;;
68923;SDS011;55961;52.156;20.942;2024-02-16T02:01:33;19.10;;;8.75;;
68923;SDS011;55961;52.156;20.942;2024-02-16T02:04:00;18.85;;;8.27;;
68923;SDS011;55961;52.156;20.942;2024-02-16T02:06:27;25.20;;;10.10;;
68923;SDS011;55961;52.156;20.942;2024-02-16T02:08:53;30.73;;;13.27;;
68923;SDS011;55961;52.156;20.942;2024-02-16T02:11:20;24.42;;;11.23;;
68923;SDS011;55961;52.156;20.942;2024-02-16T02:13:45;24.33;;;12.27;;
68923;SDS011;55961;52.156;20.942;2024-02-16T02:16:11;24.38;;;12.57;;
68923;SDS011;55961;52.156;20.942;2024-02-16T02:18:38;21.25;;;10.30;;
68923;SDS011;55961;52.156;20.942;2024-02-16T02:21:04;21.88;;;11.70;;
68923;SDS011;55961;52.156;20.942;2024-02-16T02:23:30;22.30;;;10.73;;
68923;SDS011;55961;52.156;20.942;2024-02-16T02:25:56;25.95;;;14.20;;
68923;SDS011;55961;52.156;20.942;2024-02-16T02:28:22;24.65;;;12.75;;
68923;SDS011;55961;52.156;20.942;2024-02-16T02:30:49;20.70;;;9.95;;
68923;SDS011;55961;52.156;20.942;2024-02-16T02:33:15;17.43;;;8.00;;
68923;SDS011;55961;52.156;20.942;2024-02-16T02:35:42;21.50;;;11.07;;
68923;SDS011;55961;52.156;20.942;2024-02-16T02:38:08;22.30;;;10.90;;
68923;SDS011;55961;52.156;20.942;2024-02-16T02:40:35;26.92;;;13.07;;
68923;SDS011;55961;52.156;20.942;2024-02-16T02:43:02;25.97;;;14.47;;
68923;SDS011;55961;52.156;20.942;2024-02-16T02:45:29;29.63;;;15.32;;
68923;SDS011;55961;52.156;20.942;2024-02-16T02:47:55;27.23;;;13.80;;
68923;SDS011;55961;52.156;20.942;2024-02-16T02:50:21;26.15;;;13.38;;
68923;SDS011;55961;52.156;20.942;2024-02-16T02:52:47;23.73;;;11.30;;
68923;SDS011;55961;52.156;20.942;2024-02-16T02:55:13;27.05;;;14.20;;
68923;SDS011;55961;52.156;20.942;2024-02-16T02:57:39;30.75;;;14.55;;
68923;SDS011;55961;52.156;20.942;2024-02-16T03:00:05;29.42;;;15.90;;
68923;SDS011;55961;52.156;20.942;2024-02-16T03:02:38;22.50;;;10.53;;
68923;SDS011;55961;52.156;20.942;2024-02-16T03:05:05;19.75;;;9.27;;
68923;SDS011;55961;52.156;20.942;2024-02-16T03:07:32;20.55;;;9.85;;
68923;SDS011;55961;52.156;20.942;2024-02-16T03:09:59;18.67;;;9.77;;
68923;SDS011;55961;52.156;20.942;2024-02-16T03:12:25;17.23;;;8.40;;
68923;SDS011;55961;52.156;20.942;2024-02-16T03:14:51;17.87;;;8.20;;
68923;SDS011;55961;52.156;20.942;2024-02-16T03:17:17;19.38;;;7.85;;
68923;SDS011;55961;52.156;20.942;2024-02-16T03:19:43;16.35;;;7.82;;
68923;SDS011;55961;52.156;20.942;2024-02-16T03:22:09;17.50;;;7.83;;
68923;SDS011;55961;52.156;20.942;2024-02-16T03:24:35;14.55;;;7.55;;
68923;SDS011;55961;52.156;20.942;2024-02-16T03:27:01;17.83;;;8.52;;
68923;SDS011;55961;52.156;20.942;2024-02-16T03:29:27;15.98;;;8.60;;
68923;SDS011;55961;52.156;20.942;2024-02-16T03:31:53;19.87;;;8.87;;
68923;SDS011;55961;52.156;20.942;2024-02-16T03:34:19;18.13;;;8.02;;
68923;SDS011;55961;52.156;20.942;2024-02-16T03:36:45;18.27;;;8.15;;
68923;SDS011;55961;52.156;20.942;2024-02-16T03:39:11;14.15;;;7.55;;
68923;SDS011;55961;52.156;20.942;2024-02-16T03:41:37;15.87;;;7.57;;
68923;SDS011;55961;52.156;20.942;2024-02-16T03:44:03;15.98;;;8.13;;
68923;SDS011;55961;52.156;20.942;2024-02-16T03:46:28;17.35;;;8.32;;
68923;SDS011;55961;52.156;20.942;2024-02-16T03:48:55;15.10;;;8.07;;
68923;SDS011;55961;52.156;20.942;2024-02-16T03:51:21;16.30;;;6.70;;
68923;SDS011;55961;52.156;20.942;2024-02-16T03:53:47;15.48;;;8.02;;
68923;SDS011;55961;52.156;20.942;2024-02-16T03:56:20;26.52;;;12.23;;
68923;SDS011;55961;52.156;20.942;2024-02-16T03:58:46;19.00;;;7.55;;
68923;SDS011;55961;52.156;20.942;2024-02-16T04:01:12;15.67;;;7.03;;
68923;SDS011;55961;52.156;20.942;2024-02-16T04:03:38;16.67;;;7.70;;
68923;SDS011;55961;52.156;20.942;2024-02-16T04:06:04;16.83;;;7.72;;
68923;SDS011;55961;52.156;20.942;2024-02-16T04:08:30;16.83;;;7.40;;
68923;SDS011;55961;52.156;20.942;2024-02-16T04:10:56;15.17;;;7.60;;
68923;SDS011;55961;52.156;20.942;2024-02-16T04:13:23;13.95;;;6.88;;
68923;SDS011;55961;52.156;20.942;2024-02-16T04:15:49;16.02;;;6.85;;
68923;SDS011;55961;52.156;20.942;2024-02-16T04:18:15;17.87;;;8.53;;
68923;SDS011;55961;52.156;20.942;2024-02-16T04:20:41;22.90;;;11.30;;
68923;SDS011;55961;52.156;20.942;2024-02-16T04:23:07;34.97;;;15.77;;
68923;SDS011;55961;52.156;20.942;2024-02-16T04:25:33;24.83;;;12.80;;
68923;SDS011;55961;52.156;20.942;2024-02-16T04:27:59;21.60;;;10.27;;
68923;SDS011;55961;52.156;20.942;2024-02-16T04:30:25;15.48;;;8.88;;
68923;SDS011;55961;52.156;20.942;2024-02-16T04:32:51;18.30;;;7.65;;
68923;SDS011;55961;52.156;20.942;2024-02-16T04:35:17;18.40;;;7.35;;
68923;SDS011;55961;52.156;20.942;2024-02-16T04:37:45;17.07;;;7.40;;
68923;SDS011;55961;52.156;20.942;2024-02-16T04:40:11;21.75;;;11.30;;
68923;SDS011;55961;52.156;20.942;2024-02-16T04:42:38;23.30;;;11.90;;
68923;SDS011;55961;52.156;20.942;2024-02-16T04:45:05;17.25;;;8.93;;
68923;SDS011;55961;52.156;20.942;2024-02-16T04:47:33;18.42;;;8.65;;
68923;SDS011;55961;52.156;20.942;2024-02-16T04:49:58;15.37;;;8.30;;
68923;SDS011;55961;52.156;20.942;2024-02-16T04:52:25;18.33;;;8.20;;
68923;SDS011;55961;52.156;20.942;2024-02-16T04:54:51;26.02;;;11.32;;
68923;SDS011;55961;52.156;20.942;2024-02-16T04:57:24;20.67;;;11.13;;
68923;SDS011;55961;52.156;20.942;2024-02-16T04:59:50;21.50;;;11.53;;
68923;SDS011;55961;52.156;20.942;2024-02-16T05:02:16;22.17;;;10.75;;
68923;SDS011;55961;52.156;20.942;2024-02-16T05:04:42;23.55;;;11.10;;
68923;SDS011;55961;52.156;20.942;2024-02-16T05:07:08;24.57;;;9.13;;
68923;SDS011;55961;52.156;20.942;2024-02-16T05:09:34;20.98;;;10.25;;
68923;SDS011;55961;52.156;20.942;2024-02-16T05:12:00;19.50;;;10.55;;
68923;SDS011;55961;52.156;20.942;2024-02-16T05:14:27;22.42;;;9.25;;
68923;SDS011;55961;52.156;20.942;2024-02-16T05:16:53;17.02;;;9.45;;
68923;SDS011;55961;52.156;20.942;2024-02-16T05:19:19;23.10;;;9.53;;
68923;SDS011;55961;52.156;20.942;2024-02-16T05:21:46;19.08;;;9.35;;
68923;SDS011;55961;52.156;20.942;2024-02-16T05:24:11;16.75;;;8.68;;
68923;SDS011;55961;52.156;20.942;2024-02-16T05:26:38;18.38;;;9.25;;
68923;SDS011;55961;52.156;20.942;2024-02-16T05:29:03;20.87;;;9.63;;
68923;SDS011;55961;52.156;20.942;2024-02-16T05:31:29;17.27;;;8.50;;
68923;SDS011;55961;52.156;20.942;2024-02-16T05:33:56;20.30;;;7.78;;
68923;SDS011;55961;52.156;20.942;2024-02-16T05:36:22;16.83;;;8.50;;
68923;SDS011;55961;52.156;20.942;2024-02-16T05:38:55;21.13;;;8.40;;
68923;SDS011;55961;52.156;20.942;2024-02-16T05:41:21;16.98;;;8.52;;
68923;SDS011;55961;52.156;20.942;2024-02-16T05:43:47;19.25;;;9.00;;
68923;SDS011;55961;52.156;20.942;2024-02-16T05:46:17;24.33;;;10.10;;
68923;SDS011;55961;52.156;20.942;2024-02-16T05:48:43;35.78;;;14.90;;
68923;SDS011;55961;52.156;20.942;2024-02-16T05:51:10;38.03;;;14.50;;
68923;SDS011;55961;52.156;20.942;2024-02-16T05:53:40;24.88;;;11.43;;
68923;SDS011;55961;52.156;20.942;2024-02-16T05:56:06;20.02;;;10.35;;
68923;SDS011;55961;52.156;20.942;2024-02-16T05:58:32;23.77;;;10.50;;
68923;SDS011;55961;52.156;20.942;2024-02-16T06:00:59;20.45;;;11.05;;
68923;SDS011;55961;52.156;20.942;2024-02-16T06:03:24;21.80;;;12.50;;
68923;SDS011;55961;52.156;20.942;2024-02-16T06:05:52;22.63;;;11.57;;
68923;SDS011;55961;52.156;20.942;2024-02-16T06:08:18;28.25;;;13.10;;
68923;SDS011;55961;52.156;20.942;2024-02-16T06:10:45;26.80;;;14.75;;
68923;SDS011;55961;52.156;20.942;2024-02-16T06:13:17;23.97;;;12.20;;
68923;SDS011;55961;52.156;20.942;2024-02-16T06:15:43;21.13;;;11.70;;
68923;SDS011;55961;52.156;20.942;2024-02-16T06:18:09;21.75;;;10.65;;
68923;SDS011;55961;52.156;20.942;2024-02-16T06:20:35;22.98;;;10.82;;
68923;SDS011;55961;52.156;20.942;2024-02-16T06:23:01;20.70;;;11.27;;
68923;SDS011;55961;52.156;20.942;2024-02-16T06:25:28;22.38;;;11.82;;
68923;SDS011;55961;52.156;20.942;2024-02-16T06:27:53;20.77;;;11.10;;
68923;SDS011;55961;52.156;20.942;2024-02-16T06:30:20;22.38;;;11.00;;
68923;SDS011;55961;52.156;20.942;2024-02-16T06:32:45;23.17;;;10.20;;
68923;SDS011;55961;52.156;20.942;2024-02-16T06:35:11;24.50;;;10.70;;
68923;SDS011;55961;52.156;20.942;2024-02-16T06:37:37;23.45;;;10.30;;
68923;SDS011;55961;52.156;20.942;2024-02-16T06:40:07;24.70;;;9.83;;
68923;SDS011;55961;52.156;20.942;2024-02-16T06:42:36;24.50;;;10.68;;
68923;SDS011;55961;52.156;20.942;2024-02-16T06:45:03;23.40;;;10.77;;
68923;SDS011;55961;52.156;20.942;2024-02-16T06:47:33;22.58;;;11.13;;
68923;SDS011;55961;52.156;20.942;2024-02-16T06:49:59;20.52;;;10.00;;
68923;SDS011;55961;52.156;20.942;2024-02-16T06:52:26;20.70;;;10.30;;
68923;SDS011;55961;52.156;20.942;2024-02-16T06:54:52;21.30;;;9.43;;
68923;SDS011;55961;52.156;20.942;2024-02-16T06:57:18;24.80;;;10.68;;
68923;SDS011;55961;52.156;20.942;2024-02-16T06:59:45;31.25;;;13.80;;
68923;SDS011;55961;52.156;20.942;2024-02-16T07:02:11;27.13;;;12.10;;
68923;SDS011;55961;52.156;20.942;2024-02-16T07:04:39;33.00;;;15.23;;
68923;SDS011;55961;52.156;20.942;2024-02-16T07:07:05;31.88;;;13.82;;
68923;SDS011;55961;52.156;20.942;2024-02-16T07:09:32;29.83;;;14.30;;
68923;SDS011;55961;52.156;20.942;2024-02-16T07:11:58;30.50;;;13.68;;
68923;SDS011;55961;52.156;20.942;2024-02-16T07:14:24;36.13;;;14.53;;
68923;SDS011;55961;52.156;20.942;2024-02-16T07:16:50;25.85;;;12.60;;
68923;SDS011;55961;52.156;20.942;2024-02-16T07:19:16;35.20;;;15.15;;
68923;SDS011;55961;52.156;20.942;2024-02-16T07:21:43;42.97;;;20.35;;
68923;SDS011;55961;52.156;20.942;2024-02-16T07:24:24;27.50;;;11.90;;
68923;SDS011;55961;52.156;20.942;2024-02-16T07:26:52;31.05;;;13.77;;
68923;SDS011;55961;52.156;20.942;2024-02-16T07:29:18;28.27;;;12.45;;
68923;SDS011;55961;52.156;20.942;2024-02-16T07:31:46;20.20;;;10.63;;
68923;SDS011;55961;52.156;20.942;2024-02-16T07:34:11;23.10;;;10.40;;
68923;SDS011;55961;52.156;20.942;2024-02-16T07:36:38;21.73;;;10.43;;
68923;SDS011;55961;52.156;20.942;2024-02-16T07:39:03;27.65;;;13.50;;
68923;SDS011;55961;52.156;20.942;2024-02-16T07:41:30;28.08;;;12.43;;
68923;SDS011;55961;52.156;20.942;2024-02-16T07:43:56;23.07;;;10.40;;
68923;SDS011;55961;52.156;20.942;2024-02-16T07:46:22;29.27;;;10.90;;
68923;SDS011;55961;52.156;20.942;2024-02-16T07:48:48;28.00;;;12.18;;
68923;SDS011;55961;52.156;20.942;2024-02-16T07:51:14;26.08;;;11.75;;
68923;SDS011;55961;52.156;20.942;2024-02-16T07:53:40;26.02;;;12.02;;
68923;SDS011;55961;52.156;20.942;2024-02-16T07:56:07;22.53;;;10.63;;
68923;SDS011;55961;52.156;20.942;2024-02-16T07:58:33;20.80;;;10.23;;
68923;SDS011;55961;52.156;20.942;2024-02-16T08:00:59;22.92;;;9.85;;
68923;SDS011;55961;52.156;20.942;2024-02-16T08:03:25;24.10;;;10.37;;
68923;SDS011;55961;52.156;20.942;2024-02-16T08:05:51;23.60;;;10.18;;
68923;SDS011;55961;52.156;20.942;2024-02-16T08:08:17;19.98;;;10.43;;
68923;SDS011;55961;52.156;20.942;2024-02-16T08:10:43;21.50;;;11.23;;
68923;SDS011;55961;52.156;20.942;2024-02-16T08:13:10;26.90;;;11.03;;
68923;SDS011;55961;52.156;20.942;2024-02-16T08:15:36;24.58;;;12.65;;
68923;SDS011;55961;52.156;20.942;2024-02-16T08:18:01;21.08;;;9.40;;
68923;SDS011;55961;52.156;20.942;2024-02-16T08:20:28;22.70;;;11.07;;
68923;SDS011;55961;52.156;20.942;2024-02-16T08:22:54;21.00;;;9.20;;
68923;SDS011;55961;52.156;20.942;2024-02-16T08:25:20;21.90;;;9.85;;
68923;SDS011;55961;52.156;20.942;2024-02-16T08:27:47;19.98;;;10.07;;
68923;SDS011;55961;52.156;20.942;2024-02-16T08:30:14;26.70;;;10.83;;
68923;SDS011;55961;52.156;20.942;2024-02-16T08:32:40;25.58;;;12.05;;
68923;SDS011;55961;52.156;20.942;2024-02-16T08:35:06;22.05;;;10.30;;
68923;SDS011;55961;52.156;20.942;2024-02-16T08:37:32;17.60;;;8.82;;
68923;SDS011;55961;52.156;20.942;2024-02-16T08:39:59;21.60;;;10.27;;
68923;SDS011;55961;52.156;20.942;2024-02-16T08:42:25;23.10;;;10.40;;
68923;SDS011;55961;52.156;20.942;2024-02-16T08:44:51;25.08;;;11.00;;
68923;SDS011;55961;52.156;20.942;2024-02-16T08:47:17;21.35;;;10.35;;
68923;SDS011;55961;52.156;20.942;2024-02-16T08:49:44;22.63;;;11.47;;
68923;SDS011;55961;52.156;20.942;2024-02-16T08:52:11;25.52;;;14.88;;
68923;SDS011;55961;52.156;20.942;2024-02-16T08:54:37;24.05;;;11.95;;
68923;SDS011;55961;52.156;20.942;2024-02-16T08:57:03;21.63;;;10.65;;
68923;SDS011;55961;52.156;20.942;2024-02-16T08:59:30;21.63;;;10.77;;
68923;SDS011;55961;52.156;20.942;2024-02-16T09:02:06;19.90;;;9.15;;
68923;SDS011;55961;52.156;20.942;2024-02-16T09:04:33;22.30;;;9.60;;
68923;SDS011;55961;52.156;20.942;2024-02-16T09:06:59;17.95;;;8.55;;
68923;SDS011;55961;52.156;20.942;2024-02-16T09:09:25;23.30;;;10.27;;
68923;SDS011;55961;52.156;20.942;2024-02-16T09:11:50;25.52;;;10.30;;
68923;SDS011;55961;52.156;20.942;2024-02-16T09:14:16;18.92;;;8.77;;
68923;SDS011;55961;52.156;20.942;2024-02-16T09:16:43;21.02;;;8.77;;
68923;SDS011;55961;52.156;20.942;2024-02-16T09:19:09;17.33;;;8.90;;
68923;SDS011;55961;52.156;20.942;2024-02-16T09:21:35;17.80;;;8.25;;
68923;SDS011;55961;52.156;20.942;2024-02-16T09:24:01;16.25;;;7.93;;
68923;SDS011;55961;52.156;20.942;2024-02-16T09:26:28;20.13;;;8.90;;
68923;SDS011;55961;52.156;20.942;2024-02-16T09:28:59;20.87;;;7.73;;
68923;SDS011;55961;52.156;20.942;2024-02-16T09:31:24;16.17;;;7.47;;
68923;SDS011;55961;52.156;20.942;2024-02-16T09:33:51;23.70;;;9.25;;
68923;SDS011;55961;52.156;20.942;2024-02-16T09:36:17;17.88;;;8.55;;
68923;SDS011;55961;52.156;20.942;2024-02-16T09:38:43;17.97;;;8.73;;
68923;SDS011;55961;52.156;20.942;2024-02-16T09:41:09;19.63;;;8.73;;
68923;SDS011;55961;52.156;20.942;2024-02-16T09:43:35;18.92;;;8.43;;
68923;SDS011;55961;52.156;20.942;2024-02-16T09:46:02;18.58;;;8.60;;
68923;SDS011;55961;52.156;20.942;2024-02-16T09:48:28;19.47;;;8.57;;
68923;SDS011;55961;52.156;20.942;2024-02-16T09:50:57;17.65;;;8.90;;
68923;SDS011;55961;52.156;20.942;2024-02-16T09:53:27;16.75;;;8.80;;
68923;SDS011;55961;52.156;20.942;2024-02-16T09:55:54;17.35;;;7.90;;
68923;SDS011;55961;52.156;20.942;2024-02-16T09:58:20;18.33;;;8.00;;
68923;SDS011;55961;52.156;20.942;2024-02-16T10:00:53;21.80;;;9.65;;
68923;SDS011;55961;52.156;20.942;2024-02-16T10:03:27;18.48;;;9.88;;
68923;SDS011;55961;52.156;20.942;2024-02-16T10:06:10;16.70;;;8.80;;
68923;SDS011;55961;52.156;20.942;2024-02-16T10:08:50;14.33;;;8.13;;
68923;SDS011;55961;52.156;20.942;2024-02-16T10:11:18;18.33;;;8.65;;
68923;SDS011;55961;52.156;20.942;2024-02-16T10:13:53;19.10;;;9.32;;
68923;SDS011;55961;52.156;20.942;2024-02-16T10:16:23;20.13;;;8.38;;
68923;SDS011;55961;52.156;20.942;2024-02-16T10:18:49;19.40;;;9.30;;
68923;SDS011;55961;52.156;20.942;2024-02-16T10:21:23;17.30;;;8.20;;
68923;SDS011;55961;52.156;20.942;2024-02-16T10:23:59;14.98;;;8.05;;
68923;SDS011;55961;52.156;20.942;2024-02-16T10:26:30;16.67;;;8.95;;
68923;SDS011;55961;52.156;20.942;2024-02-16T10:28:57;19.75;;;9.55;;
68923;SDS011;55961;52.156;20.942;2024-02-16T10:31:24;17.70;;;9.23;;
68923;SDS011;55961;52.156;20.942;2024-02-16T10:33:56;19.00;;;9.93;;
68923;SDS011;55961;52.156;20.942;2024-02-16T10:36:24;15.15;;;8.98;;
68923;SDS011;55961;52.156;20.942;2024-02-16T10:38:54;15.48;;;8.02;;
68923;SDS011;55961;52.156;20.942;2024-02-16T10:41:22;18.67;;;9.00;;
68923;SDS011;55961;52.156;20.942;2024-02-16T10:43:55;18.37;;;10.10;;
68923;SDS011;55961;52.156;20.942;2024-02-16T10:46:21;18.85;;;11.15;;
68923;SDS011;55961;52.156;20.942;2024-02-16T10:48:50;17.90;;;9.85;;
68923;SDS011;55961;52.156;20.942;2024-02-16T10:51:17;19.33;;;10.30;;
68923;SDS011;55961;52.156;20.942;2024-02-16T10:53:53;17.67;;;9.20;;
68923;SDS011;55961;52.156;20.942;2024-02-16T10:56:34;17.73;;;9.10;;
68923;SDS011;55961;52.156;20.942;2024-02-16T10:59:05;16.38;;;9.90;;
68923;SDS011;55961;52.156;20.942;2024-02-16T11:01:36;16.42;;;9.43;;
68923;SDS011;55961;52.156;20.942;2024-02-16T11:04:04;17.67;;;10.32;;
68923;SDS011;55961;52.156;20.942;2024-02-16T11:06:48;19.35;;;9.48;;
68923;SDS011;55961;52.156;20.942;2024-02-16T11:09:25;17.87;;;10.27;;
68923;SDS011;55961;52.156;20.942;2024-02-16T11:11:58;16.30;;;10.10;;
68923;SDS011;55961;52.156;20.942;2024-02-16T11:14:38;21.33;;;10.20;;
68923;SDS011;55961;52.156;20.942;2024-02-16T11:17:08;22.05;;;11.15;;
68923;SDS011;55961;52.156;20.942;2024-02-16T11:19:41;19.95;;;11.05;;
68923;SDS011;55961;52.156;20.942;2024-02-16T11:22:09;28.50;;;15.47;;
68923;SDS011;55961;52.156;20.942;2024-02-16T11:24:37;17.70;;;10.10;;
68923;SDS011;55961;52.156;20.942;2024-02-16T11:27:08;25.15;;;12.15;;
68923;SDS011;55961;52.156;20.942;2024-02-16T11:29:35;17.30;;;10.85;;
68923;SDS011;55961;52.156;20.942;2024-02-16T11:32:02;19.55;;;11.02;;
68923;SDS011;55961;52.156;20.942;2024-02-16T11:34:29;16.30;;;9.57;;
68923;SDS011;55961;52.156;20.942;2024-02-16T11:36:56;18.00;;;9.65;;
68923;SDS011;55961;52.156;20.942;2024-02-16T11:39:23;15.65;;;9.60;;
68923;SDS011;55961;52.156;20.942;2024-02-16T11:42:07;16.95;;;9.68;;
68923;SDS011;55961;52.156;20.942;2024-02-16T11:44:39;16.50;;;10.02;;
68923;SDS011;55961;52.156;20.942;2024-02-16T11:47:07;17.07;;;9.17;;
68923;SDS011;55961;52.156;20.942;2024-02-16T11:49:42;19.70;;;10.13;;
68923;SDS011;55961;52.156;20.942;2024-02-16T11:52:10;17.98;;;10.27;;
68923;SDS011;55961;52.156;20.942;2024-02-16T11:54:37;19.80;;;9.70;;
68923;SDS011;55961;52.156;20.942;2024-02-16T11:57:03;16.50;;;9.80;;
68923;SDS011;55961;52.156;20.942;2024-02-16T11:59:30;20.13;;;9.88;;
68923;SDS011;55961;52.156;20.942;2024-02-16T12:01:59;17.20;;;10.07;;
68923;SDS011;55961;52.156;20.942;2024-02-16T12:04:27;16.08;;;9.93;;
68923;SDS011;55961;52.156;20.942;2024-02-16T12:06:57;17.80;;;9.73;;
68923;SDS011;55961;52.156;20.942;2024-02-16T12:09:24;16.97;;;9.23;;
68923;SDS011;55961;52.156;20.942;2024-02-16T12:11:51;16.42;;;9.20;;
68923;SDS011;55961;52.156;20.942;2024-02-16T12:14:19;16.58;;;9.25;;
68923;SDS011;55961;52.156;20.942;2024-02-16T12:16:48;15.00;;;8.88;;
68923;SDS011;55961;52.156;20.942;2024-02-16T12:19:15;17.67;;;9.27;;
68923;SDS011;55961;52.156;20.942;2024-02-16T12:21:43;17.08;;;8.57;;
68923;SDS011;55961;52.156;20.942;2024-02-16T12:24:09;14.70;;;8.00;;
68923;SDS011;55961;52.156;20.942;2024-02-16T12:26:36;13.75;;;7.93;;
68923;SDS011;55961;52.156;20.942;2024-02-16T12:29:02;15.52;;;7.60;;
68923;SDS011;55961;52.156;20.942;2024-02-16T12:31:29;12.23;;;6.83;;
68923;SDS011;55961;52.156;20.942;2024-02-16T12:33:55;13.93;;;6.88;;
68923;SDS011;55961;52.156;20.942;2024-02-16T12:36:21;11.73;;;7.07;;
68923;SDS011;55961;52.156;20.942;2024-02-16T12:38:49;17.38;;;7.88;;
68923;SDS011;55961;52.156;20.942;2024-02-16T12:41:15;13.23;;;5.80;;
68923;SDS011;55961;52.156;20.942;2024-02-16T12:43:41;11.60;;;6.03;;
68923;SDS011;55961;52.156;20.942;2024-02-16T12:46:07;12.20;;;6.40;;
68923;SDS011;55961;52.156;20.942;2024-02-16T12:48:33;10.38;;;6.10;;
68923;SDS011;55961;52.156;20.942;2024-02-16T12:50:59;12.63;;;7.03;;
68923;SDS011;55961;52.156;20.942;2024-02-16T12:53:25;11.90;;;6.15;;
68923;SDS011;55961;52.156;20.942;2024-02-16T12:55:53;12.32;;;5.63;;
68923;SDS011;55961;52.156;20.942;2024-02-16T12:58:19;13.10;;;6.72;;
68923;SDS011;55961;52.156;20.942;2024-02-16T13:00:45;10.90;;;6.37;;
68923;SDS011;55961;52.156;20.942;2024-02-16T13:03:11;12.27;;;6.47;;
68923;SDS011;55961;52.156;20.942;2024-02-16T13:05:39;9.45;;;4.72;;
68923;SDS011;55961;52.156;20.942;2024-02-16T13:08:06;12.70;;;5.50;;
68923;SDS011;55961;52.156;20.942;2024-02-16T13:10:31;15.13;;;6.68;;
68923;SDS011;55961;52.156;20.942;2024-02-16T13:12:58;14.23;;;7.30;;
68923;SDS011;55961;52.156;20.942;2024-02-16T13:15:23;16.05;;;8.15;;
68923;SDS011;55961;52.156;20.942;2024-02-16T13:17:49;14.47;;;8.63;;
68923;SDS011;55961;52.156;20.942;2024-02-16T13:20:15;15.90;;;8.27;;
68923;SDS011;55961;52.156;20.942;2024-02-16T13:22:41;16.48;;;8.63;;
68923;SDS011;55961;52.156;20.942;2024-02-16T13:25:08;15.40;;;8.43;;
68923;SDS011;55961;52.156;20.942;2024-02-16T13:27:34;20.13;;;8.43;;
68923;SDS011;55961;52.156;20.942;2024-02-16T13:30:02;14.15;;;7.80;;
68923;SDS011;55961;52.156;20.942;2024-02-16T13:32:32;15.50;;;8.23;;
68923;SDS011;55961;52.156;20.942;2024-02-16T13:34:59;15.90;;;8.25;;
68923;SDS011;55961;52.156;20.942;2024-02-16T13:37:25;15.10;;;8.70;;
68923;SDS011;55961;52.156;20.942;2024-02-16T13:39:51;17.03;;;8.37;;
68923;SDS011;55961;52.156;20.942;2024-02-16T13:42:17;16.38;;;8.38;;
68923;SDS011;55961;52.156;20.942;2024-02-16T13:44:44;15.73;;;8.00;;
68923;SDS011;55961;52.156;20.942;2024-02-16T13:47:11;14.82;;;8.02;;
68923;SDS011;55961;52.156;20.942;2024-02-16T13:49:36;15.17;;;8.70;;
68923;SDS011;55961;52.156;20.942;2024-02-16T13:52:03;16.70;;;8.15;;
68923;SDS011;55961;52.156;20.942;2024-02-16T13:54:29;17.27;;;8.48;;
68923;SDS011;55961;52.156;20.942;2024-02-16T13:56:55;15.27;;;8.10;;
68923;SDS011;55961;52.156;20.942;2024-02-16T13:59:21;13.60;;;8.13;;
68923;SDS011;55961;52.156;20.942;2024-02-16T14:01:47;18.90;;;8.43;;
68923;SDS011;55961;52.156;20.942;2024-02-16T14:04:13;20.42;;;8.52;;
68923;SDS011;55961;52.156;20.942;2024-02-16T14:06:40;14.35;;;6.97;;
68923;SDS011;55961;52.156;20.942;2024-02-16T14:09:06;16.73;;;8.90;;
68923;SDS011;55961;52.156;20.942;2024-02-16T14:11:39;16.48;;;8.63;;
68923;SDS011;55961;52.156;20.942;2024-02-16T14:14:08;14.93;;;7.85;;
68923;SDS011;55961;52.156;20.942;2024-02-16T14:16:34;14.15;;;7.85;;